createdAt,value
2022-11-29T00:00:37.199Z,8.25
2022-11-29T00:05:39.585Z,8.32
2022-11-29T00:11:00.164Z,8.08
2022-11-29T00:16:04.952Z,8.35
2022-11-29T00:21:08.909Z,8.35
2022-11-29T00:26:11.387Z,8.47
2022-11-29T00:31:26.362Z,8.37
2022-11-29T00:36:28.895Z,8.43
2022-11-29T00:41:32.046Z,8.55
2022-11-29T00:46:34.356Z,8.44
2022-11-29T00:51:36.851Z,8.06
2022-11-29T00:56:39.575Z,8.28
2022-11-29T01:01:41.953Z,8.28
2022-11-29T01:06:44.260Z,8.33
2022-11-29T01:11:46.532Z,8.28
2022-11-29T01:16:48.888Z,8.15
2022-11-29T01:21:51.229Z,8.23
2022-11-29T01:26:53.407Z,8.27
2022-11-29T01:31:55.649Z,8.04
2022-11-29T01:36:58.154Z,8.10
2022-11-29T01:42:01.376Z,8.21
2022-11-29T01:47:03.894Z,8.20
2022-11-29T01:52:13.712Z,8.15
2022-11-29T01:57:17.289Z,8.07
2022-11-29T02:02:27.457Z,8.12
2022-11-29T02:07:29.921Z,8.12
2022-11-29T02:12:55.229Z,8.38
2022-11-29T02:18:09.041Z,8.27
2022-11-29T02:23:35.449Z,8.43
2022-11-29T02:28:55.777Z,8.49
2022-11-29T02:34:32.865Z,8.30
2022-11-29T02:39:53.809Z,8.45
2022-11-29T02:45:13.503Z,8.47
2022-11-29T02:50:24.648Z,8.52
2022-11-29T02:55:35.029Z,8.49
2022-11-29T03:00:47.752Z,8.48
2022-11-29T03:06:15.780Z,8.38
2022-11-29T03:11:18.235Z,8.52
2022-11-29T03:16:59.814Z,8.50
2022-11-29T03:22:12.671Z,8.52
2022-11-29T03:27:21.753Z,8.40
2022-11-29T03:32:32.530Z,8.31
2022-11-29T03:38:16.254Z,8.40
2022-11-29T03:43:31.385Z,8.23
2022-11-29T03:48:52.002Z,8.32
2022-11-29T03:54:13.855Z,8.44
2022-11-29T03:59:16.199Z,8.51
2022-11-29T04:04:55.409Z,8.44
2022-11-29T04:10:12.793Z,8.50
2022-11-29T04:15:52.359Z,8.52
2022-11-29T04:21:25.362Z,8.58
2022-11-29T04:26:46.073Z,8.55
2022-11-29T04:31:54.495Z,8.47
2022-11-29T04:37:27.626Z,8.49
2022-11-29T04:42:29.955Z,8.51
2022-11-29T04:47:48.416Z,8.48
2022-11-29T04:52:56.905Z,8.52
2022-11-29T04:58:07.991Z,8.50
2022-11-29T05:03:25.016Z,8.30
2022-11-29T05:08:39.310Z,8.52
2022-11-29T05:13:56.964Z,8.38
2022-11-29T05:19:10.982Z,8.53
2022-11-29T05:24:57.815Z,8.57
2022-11-29T05:30:12.349Z,8.63
2022-11-29T05:35:45.275Z,8.55
2022-11-29T05:41:07.207Z,8.64
2022-11-29T05:46:27.955Z,8.64
2022-11-29T05:51:30.243Z,8.66
2022-11-29T05:56:53.995Z,8.62
2022-11-29T06:02:15.753Z,8.75
2022-11-29T06:07:31.207Z,8.57
2022-11-29T06:12:37.930Z,8.81
2022-11-29T06:17:49.492Z,8.97
2022-11-29T06:23:09.475Z,8.83
2022-11-29T06:28:42.464Z,8.80
2022-11-29T06:34:30.973Z,8.91
2022-11-29T06:39:33.692Z,9.02
2022-11-29T06:44:36.205Z,8.84
2022-11-29T06:49:54.070Z,9.09
2022-11-29T06:55:11.208Z,9.03
2022-11-29T07:00:45.856Z,9.03
2022-11-29T07:05:48.756Z,9.07
2022-11-29T07:10:54.507Z,9.20
2022-11-29T07:16:25.489Z,9.27
2022-11-29T07:21:27.764Z,9.30
2022-11-29T07:26:32.982Z,9.41
2022-11-29T07:31:56.988Z,9.30
2022-11-29T07:37:04.868Z,9.38
2022-11-29T07:42:26.580Z,9.35
2022-11-29T07:47:34.077Z,9.28
2022-11-29T07:52:37.849Z,9.21
2022-11-29T07:57:40.476Z,9.43
2022-11-29T08:02:43.182Z,9.31
2022-11-29T08:07:46.971Z,9.33
2022-11-29T08:12:51.893Z,9.27
2022-11-29T08:17:54.459Z,9.41
2022-11-29T08:22:58.874Z,9.56
2022-11-29T08:28:03.060Z,9.56
2022-11-29T08:33:05.516Z,9.47
2022-11-29T08:38:07.804Z,9.42
2022-11-29T08:43:10.103Z,9.77
2022-11-29T08:48:14.412Z,9.57
2022-11-29T08:53:35.118Z,9.84
2022-11-29T08:58:38.639Z,9.93
2022-11-29T09:03:59.787Z,9.85
2022-11-29T09:09:02.222Z,9.68
2022-11-29T09:14:07.286Z,9.99
2022-11-29T09:19:09.948Z,9.77
2022-11-29T09:24:12.451Z,9.88
2022-11-29T09:29:16.697Z,9.88
2022-11-29T09:34:19.159Z,10.06
2022-11-29T09:39:21.360Z,9.90
2022-11-29T09:44:46.729Z,9.98
2022-11-29T09:50:23.065Z,10.38
2022-11-29T09:55:50.020Z,10.40
2022-11-29T10:01:00.544Z,10.39
2022-11-29T10:06:17.819Z,10.62
2022-11-29T10:11:35.880Z,10.62
2022-11-29T10:16:53.069Z,10.73
2022-11-29T10:22:10.927Z,10.84
2022-11-29T10:27:27.525Z,10.91
2022-11-29T10:32:32.569Z,11.06
2022-11-29T10:37:35.395Z,10.93
2022-11-29T10:42:53.535Z,11.09
2022-11-29T10:48:02.484Z,11.05
2022-11-29T10:53:11.988Z,11.14
2022-11-29T10:58:18.729Z,11.23
2022-11-29T11:03:32.057Z,10.91
2022-11-29T11:08:36.203Z,11.29
2022-11-29T11:13:41.522Z,11.25
2022-11-29T11:18:45.193Z,11.40
2022-11-29T11:24:03.335Z,11.40
2022-11-29T11:29:06.097Z,11.54
2022-11-29T11:34:27.140Z,11.66
2022-11-29T11:39:29.676Z,11.71
2022-11-29T11:44:51.731Z,11.93
2022-11-29T11:50:08.630Z,11.91
2022-11-29T11:55:23.211Z,12.00
2022-11-29T12:01:03.369Z,12.05
2022-11-29T12:06:35.579Z,11.85
2022-11-29T12:11:53.903Z,12.01
2022-11-29T12:17:08.526Z,12.15
2022-11-29T12:22:16.788Z,12.18
2022-11-29T12:27:19.318Z,12.05
2022-11-29T12:32:36.313Z,12.04
2022-11-29T12:38:34.577Z,12.04
2022-11-29T12:43:55.109Z,12.05
2022-11-29T12:49:27.252Z,11.97
2022-11-29T12:54:44.351Z,11.88
2022-11-29T13:00:09.969Z,11.96
2022-11-29T13:05:25.111Z,11.91
2022-11-29T13:10:56.571Z,11.90
2022-11-29T13:16:20.530Z,11.84
2022-11-29T13:21:39.730Z,11.59
2022-11-29T13:26:43.653Z,11.63
2022-11-29T13:31:47.664Z,11.66
2022-11-29T13:37:22.714Z,11.37
2022-11-29T13:42:58.509Z,11.38
2022-11-29T13:48:02.667Z,11.41
2022-11-29T13:53:14.306Z,11.33
2022-11-29T13:58:18.091Z,11.51
2022-11-29T14:03:23.646Z,11.30
2022-11-29T14:09:01.989Z,11.38
2022-11-29T14:14:17.734Z,11.18
2022-11-29T14:19:33.072Z,11.02
2022-11-29T14:24:36.392Z,10.62
2022-11-29T14:29:50.625Z,10.64
2022-11-29T14:35:01.958Z,10.74
2022-11-29T14:40:33.999Z,10.59
2022-11-29T14:45:36.496Z,10.68
2022-11-29T14:50:42.722Z,10.62
2022-11-29T14:55:45.026Z,10.52
2022-11-29T15:00:50.174Z,10.66
2022-11-29T15:06:15.928Z,10.60
2022-11-29T15:11:32.544Z,10.57
2022-11-29T15:16:46.676Z,10.39
2022-11-29T15:22:17.374Z,10.35
2022-11-29T15:27:20.164Z,10.31
2022-11-29T15:32:32.973Z,10.29
2022-11-29T15:37:36.066Z,10.33
2022-11-29T15:42:44.125Z,10.47
2022-11-29T15:47:46.333Z,10.57
2022-11-29T15:52:48.777Z,10.62
2022-11-29T15:57:56.543Z,10.48
2022-11-29T16:03:01.838Z,10.57
2022-11-29T16:08:14.758Z,10.38
2022-11-29T16:13:58.525Z,10.66
2022-11-29T16:19:33.023Z,10.66
2022-11-29T16:24:37.223Z,10.68
2022-11-29T16:29:45.541Z,10.61
2022-11-29T16:34:48.177Z,10.51
2022-11-29T16:39:53.421Z,10.60
2022-11-29T16:45:32.663Z,10.72
2022-11-29T16:50:35.481Z,10.60
2022-11-29T16:55:37.699Z,10.61
2022-11-29T17:00:40.151Z,10.47
2022-11-29T17:05:44.859Z,10.80
2022-11-29T17:10:47.358Z,10.63
2022-11-29T17:15:49.705Z,10.65
2022-11-29T17:20:57.760Z,10.72
2022-11-29T17:26:01.016Z,10.67
2022-11-29T17:31:33.137Z,10.76
2022-11-29T17:36:35.732Z,10.79
2022-11-29T17:41:38.436Z,10.72
2022-11-29T17:46:41.755Z,10.73
2022-11-29T17:51:52.961Z,10.66
2022-11-29T17:56:55.781Z,10.62
2022-11-29T18:01:58.021Z,10.61
2022-11-29T18:07:01.997Z,10.57
2022-11-29T18:12:04.551Z,10.51
2022-11-29T18:17:06.927Z,10.41
2022-11-29T18:22:09.456Z,10.26
2022-11-29T18:27:11.872Z,10.39
2022-11-29T18:32:14.267Z,10.43
2022-11-29T18:37:32.821Z,10.33
2022-11-29T18:42:39.233Z,10.29
2022-11-29T18:47:41.443Z,10.27
2022-11-29T18:52:43.714Z,10.05
2022-11-29T18:57:49.485Z,10.01
2022-11-29T19:02:51.783Z,10.14
2022-11-29T19:07:54.136Z,9.94
2022-11-29T19:12:57.026Z,9.81
2022-11-29T19:17:59.529Z,10.01
2022-11-29T19:23:01.817Z,9.90
2022-11-29T19:28:05.902Z,10.04
2022-11-29T19:33:14.028Z,9.84
2022-11-29T19:38:16.233Z,9.80
2022-11-29T19:43:18.682Z,9.69
2022-11-29T19:48:21.143Z,9.83
2022-11-29T19:53:23.441Z,9.83
2022-11-29T19:58:26.002Z,9.81
2022-11-29T20:03:30.709Z,9.87
2022-11-29T20:08:33.237Z,9.80
2022-11-29T20:13:35.927Z,9.55
2022-11-29T20:18:40.236Z,9.72
2022-11-29T20:23:43.084Z,9.59
2022-11-29T20:28:47.303Z,9.81
2022-11-29T20:33:51.758Z,9.72
2022-11-29T20:39:01.284Z,9.78
2022-11-29T20:44:04.521Z,9.81
2022-11-29T20:49:07.154Z,9.76
2022-11-29T20:54:12.477Z,9.79
2022-11-29T20:59:14.889Z,9.87
2022-11-29T21:04:22.883Z,9.69
2022-11-29T21:09:26.284Z,9.82
2022-11-29T21:14:30.622Z,9.96
2022-11-29T21:19:33.344Z,9.71
2022-11-29T21:25:03.152Z,9.77
2022-11-29T21:30:09.458Z,9.74
2022-11-29T21:35:12.414Z,9.83
2022-11-29T21:40:15.913Z,9.88
2022-11-29T21:45:18.578Z,9.85
2022-11-29T21:50:22.712Z,9.84
2022-11-29T21:55:31.570Z,9.84
2022-11-29T22:00:37.581Z,9.68
2022-11-29T22:05:40.091Z,9.67
2022-11-29T22:10:42.388Z,9.52
2022-11-29T22:15:44.960Z,9.67
2022-11-29T22:20:49.985Z,9.57
2022-11-29T22:25:52.279Z,9.48
2022-11-29T22:31:05.662Z,9.66
2022-11-29T22:36:10.615Z,9.40
2022-11-29T22:41:14.371Z,9.41
2022-11-29T22:46:25.000Z,9.41
2022-11-29T22:51:31.099Z,9.21
2022-11-29T22:56:36.374Z,9.36
2022-11-29T23:01:40.357Z,9.53
2022-11-29T23:06:45.272Z,9.46
2022-11-29T23:11:54.051Z,9.70
2022-11-29T23:16:56.326Z,9.58
2022-11-29T23:21:58.898Z,9.60
2022-11-29T23:27:01.100Z,9.48
2022-11-29T23:32:03.533Z,9.28
2022-11-29T23:37:05.698Z,9.39
2022-11-29T23:42:08.038Z,9.33
2022-11-29T23:47:10.442Z,9.60
2022-11-29T23:52:13.102Z,9.40
2022-11-29T23:57:15.444Z,9.11
